createdAt,value
2018-06-25T00:02:09.107Z,94.20
2018-06-25T00:04:37.290Z,93.30
2018-06-25T00:07:05.587Z,93.70
2018-06-25T00:09:33.795Z,94.30
2018-06-25T00:12:02.003Z,93.80
2018-06-25T00:14:30.462Z,93.60
2018-06-25T00:16:58.698Z,93.10
2018-06-25T00:19:26.922Z,93.00
2018-06-25T00:21:55.178Z,94.30
2018-06-25T00:24:23.386Z,95.60
2018-06-25T00:26:51.591Z,98.30
2018-06-25T00:29:19.810Z,98.90
2018-06-25T00:31:48.027Z,99.60
2018-06-25T00:34:16.239Z,99.90
2018-06-25T00:36:44.454Z,99.90
2018-06-25T00:39:12.778Z,99.90
2018-06-25T00:41:41.002Z,99.90
2018-06-25T00:44:09.243Z,99.90
2018-06-25T00:46:37.530Z,99.90
2018-06-25T00:49:06.064Z,99.90
2018-06-25T00:51:34.284Z,99.90
2018-06-25T00:54:02.512Z,99.90
2018-06-25T00:56:30.727Z,99.90
2018-06-25T00:59:10.291Z,99.90
2018-06-25T01:01:38.499Z,99.90
2018-06-25T01:04:06.694Z,99.90
2018-06-25T01:06:34.959Z,99.90
2018-06-25T01:11:31.179Z,99.90
2018-06-25T01:13:59.427Z,99.90
2018-06-25T01:16:27.661Z,99.90
2018-06-25T01:18:55.882Z,99.90
2018-06-25T01:21:24.095Z,99.90
2018-06-25T01:23:52.298Z,99.90
2018-06-25T01:26:20.530Z,99.90
2018-06-25T01:28:48.766Z,99.90
2018-06-25T01:31:17.006Z,99.90
2018-06-25T01:33:45.248Z,99.90
2018-06-25T01:36:13.469Z,99.90
2018-06-25T01:38:41.693Z,99.90
2018-06-25T01:41:09.902Z,99.90
2018-06-25T01:43:38.139Z,99.90
2018-06-25T01:46:06.364Z,99.90
2018-06-25T01:48:34.586Z,99.90
2018-06-25T01:51:02.819Z,99.90
2018-06-25T01:53:31.028Z,99.90
2018-06-25T01:55:59.234Z,99.90
2018-06-25T01:58:27.465Z,99.90
2018-06-25T02:00:55.687Z,99.90
2018-06-25T02:03:24.070Z,99.90
2018-06-25T02:05:52.310Z,99.90
2018-06-25T02:08:20.535Z,99.90
2018-06-25T02:10:48.759Z,99.90
2018-06-25T02:13:16.970Z,99.90
2018-06-25T02:15:45.178Z,99.90
2018-06-25T02:18:13.392Z,99.90
2018-06-25T02:20:41.618Z,99.90
2018-06-25T02:23:09.833Z,99.90
2018-06-25T02:25:38.222Z,99.90
2018-06-25T02:28:06.480Z,99.90
2018-06-25T02:30:34.717Z,99.90
2018-06-25T02:33:03.053Z,99.90
2018-06-25T02:35:31.204Z,99.90
2018-06-25T02:37:59.411Z,99.90
2018-06-25T02:40:27.647Z,99.90
2018-06-25T02:42:55.862Z,99.90
2018-06-25T02:45:24.095Z,99.90
2018-06-25T02:47:52.442Z,99.90
2018-06-25T02:50:20.647Z,99.90
2018-06-25T02:52:48.861Z,99.90
2018-06-25T02:55:17.046Z,99.90
2018-06-25T02:57:45.289Z,99.90
2018-06-25T03:00:13.482Z,99.90
2018-06-25T03:02:41.695Z,99.90
2018-06-25T03:07:37.862Z,99.90
2018-06-25T03:10:06.294Z,99.90
2018-06-25T03:12:34.554Z,99.90
2018-06-25T03:15:02.768Z,99.90
2018-06-25T03:17:30.971Z,99.90
2018-06-25T03:19:59.174Z,99.90
2018-06-25T03:22:27.374Z,99.90
2018-06-25T03:24:55.597Z,99.90
2018-06-25T03:27:24.066Z,99.90
2018-06-25T03:29:52.274Z,99.90
2018-06-25T03:32:20.770Z,99.90
2018-06-25T03:34:48.953Z,99.90
2018-06-25T03:37:17.174Z,99.90
2018-06-25T03:39:45.390Z,99.90
2018-06-25T03:42:13.643Z,99.90
2018-06-25T03:44:41.886Z,99.90
2018-06-25T03:47:10.074Z,99.90
2018-06-25T03:49:38.282Z,99.90
2018-06-25T03:52:06.495Z,99.90
2018-06-25T03:54:34.957Z,99.90
2018-06-25T03:57:03.165Z,99.90
2018-06-25T03:59:31.408Z,99.90
2018-06-25T04:01:59.674Z,99.90
2018-06-25T04:04:27.918Z,99.90
2018-06-25T04:06:56.139Z,99.90
2018-06-25T04:09:24.326Z,99.90
2018-06-25T04:11:52.555Z,99.90
2018-06-25T04:14:20.819Z,99.90
2018-06-25T04:16:49.035Z,99.90
2018-06-25T04:19:17.230Z,99.90
2018-06-25T04:21:45.482Z,99.90
2018-06-25T04:24:13.681Z,99.90
2018-06-25T04:26:41.910Z,99.90
2018-06-25T04:29:10.165Z,99.90
2018-06-25T04:31:38.415Z,99.90
2018-06-25T04:34:06.638Z,99.90
2018-06-25T04:36:34.937Z,99.90
2018-06-25T04:39:03.266Z,99.90
2018-06-25T04:41:31.510Z,99.90
2018-06-25T04:43:59.718Z,99.90
2018-06-25T04:46:27.926Z,99.90
2018-06-25T04:48:56.147Z,99.90
2018-06-25T04:51:24.342Z,99.90
2018-06-25T04:53:52.580Z,99.90
2018-06-25T04:56:20.830Z,99.90
2018-06-25T04:58:49.051Z,99.90
2018-06-25T05:03:45.286Z,99.90
2018-06-25T05:06:13.479Z,99.90
2018-06-25T05:08:41.695Z,99.90
2018-06-25T05:11:09.964Z,99.90
2018-06-25T05:13:38.179Z,99.90
2018-06-25T05:16:06.586Z,99.90
2018-06-25T05:18:34.811Z,99.90
2018-06-25T05:21:03.042Z,99.90
2018-06-25T05:23:31.408Z,99.90
2018-06-25T05:25:59.609Z,99.90
2018-06-25T05:28:27.808Z,99.90
2018-06-25T05:30:56.023Z,99.90
2018-06-25T05:33:24.262Z,99.90
2018-06-25T05:35:52.458Z,99.90
2018-06-25T05:38:20.706Z,99.90
2018-06-25T05:40:48.922Z,99.90
2018-06-25T05:43:17.159Z,99.90
2018-06-25T05:45:45.573Z,99.90
2018-06-25T05:48:13.822Z,99.90
2018-06-25T05:50:42.016Z,99.90
2018-06-25T05:53:10.216Z,99.90
2018-06-25T05:55:38.465Z,99.90
2018-06-25T05:58:06.723Z,99.90
2018-06-25T06:00:34.939Z,99.90
2018-06-25T06:03:03.167Z,99.90
2018-06-25T06:05:31.378Z,99.90
2018-06-25T06:07:59.754Z,99.90
2018-06-25T06:10:27.984Z,99.90
2018-06-25T06:12:56.211Z,99.90
2018-06-25T06:15:24.418Z,99.90
2018-06-25T06:17:52.627Z,99.90
2018-06-25T06:20:20.830Z,99.90
2018-06-25T06:22:49.040Z,99.90
2018-06-25T06:25:17.343Z,99.90
2018-06-25T06:27:45.550Z,99.90
2018-06-25T06:30:14.499Z,99.90
2018-06-25T06:32:42.748Z,99.90
2018-06-25T06:35:11.118Z,99.90
2018-06-25T06:37:39.270Z,98.90
2018-06-25T06:40:07.568Z,98.20
2018-06-25T06:42:35.786Z,98.30
2018-06-25T06:45:04.317Z,98.10
2018-06-25T06:47:32.695Z,98.10
2018-06-25T06:50:01.150Z,96.80
2018-06-25T06:52:29.872Z,97.00
2018-06-25T06:54:58.303Z,96.70
2018-06-25T06:57:26.758Z,97.50
2018-06-25T06:59:55.316Z,96.00
2018-06-25T07:02:23.893Z,96.50
2018-06-25T07:04:52.975Z,96.70
2018-06-25T07:07:21.573Z,95.40
2018-06-25T07:09:50.337Z,95.80
2018-06-25T07:12:19.218Z,95.80
2018-06-25T07:14:47.976Z,95.30
2018-06-25T07:17:16.639Z,95.30
2018-06-25T07:22:14.632Z,93.90
2018-06-25T07:24:43.179Z,94.60
2018-06-25T07:27:13.165Z,94.80
2018-06-25T07:29:42.097Z,94.40
2018-06-25T07:32:11.349Z,93.70
2018-06-25T07:34:40.358Z,92.90
2018-06-25T07:37:10.207Z,91.90
2018-06-25T07:39:39.176Z,90.60
2018-06-25T07:42:09.961Z,91.00
2018-06-25T07:44:38.618Z,90.50
2018-06-25T07:47:09.481Z,89.10
2018-06-25T07:49:38.151Z,87.20
2018-06-25T07:52:06.884Z,87.40
2018-06-25T07:54:35.772Z,87.50
2018-06-25T07:57:05.757Z,88.10
2018-06-25T07:59:35.666Z,89.50
2018-06-25T08:02:05.071Z,87.90
2018-06-25T08:04:33.768Z,86.80
2018-06-25T08:07:03.600Z,87.10
2018-06-25T08:09:32.325Z,88.30
2018-06-25T08:12:00.946Z,88.10
2018-06-25T08:14:30.265Z,86.40
2018-06-25T08:16:58.856Z,86.10
2018-06-25T08:19:27.506Z,85.40
2018-06-25T08:21:56.036Z,85.00
2018-06-25T08:24:24.529Z,83.40
2018-06-25T08:26:52.755Z,82.50
2018-06-25T08:29:21.395Z,82.60
2018-06-25T08:31:49.691Z,80.30
2018-06-25T08:34:18.069Z,79.90
2018-06-25T08:36:46.175Z,78.30
2018-06-25T08:39:14.828Z,78.10
2018-06-25T08:41:43.610Z,83.00
2018-06-25T08:44:11.991Z,81.30
2018-06-25T08:46:40.543Z,81.60
2018-06-25T08:49:12.634Z,81.40
2018-06-25T08:51:41.120Z,82.20
2018-06-25T08:54:09.426Z,85.80
2018-06-25T08:56:37.907Z,84.50
2018-06-25T08:59:06.166Z,86.90
2018-06-25T09:01:34.683Z,89.10
2018-06-25T09:04:03.196Z,87.30
2018-06-25T09:06:31.414Z,87.30
2018-06-25T09:08:59.711Z,87.30
2018-06-25T09:11:27.937Z,84.40
2018-06-25T09:13:56.737Z,82.50
2018-06-25T09:16:24.988Z,84.10
2018-06-25T09:18:53.306Z,79.90
2018-06-25T09:21:21.832Z,78.20
2018-06-25T09:23:50.183Z,77.30
2018-06-25T09:28:47.338Z,77.50
2018-06-25T09:31:15.596Z,80.00
2018-06-25T09:33:43.867Z,81.00
2018-06-25T09:36:12.106Z,81.80
2018-06-25T09:38:40.400Z,82.90
2018-06-25T09:41:08.636Z,83.60
2018-06-25T09:43:36.868Z,84.10
2018-06-25T09:46:05.644Z,83.10
2018-06-25T09:48:34.104Z,84.60
2018-06-25T09:51:02.344Z,83.10
2018-06-25T09:53:38.741Z,83.10
2018-06-25T09:56:07.120Z,80.50
2018-06-25T09:58:35.346Z,81.10
2018-06-25T10:01:09.951Z,82.40
2018-06-25T10:03:39.190Z,82.40
2018-06-25T10:06:07.650Z,81.30
2018-06-25T10:08:37.178Z,80.90
2018-06-25T10:11:05.654Z,80.40
2018-06-25T10:13:35.538Z,81.40
2018-06-25T10:16:05.221Z,82.70
2018-06-25T10:18:33.627Z,83.80
2018-06-25T10:21:01.865Z,84.60
2018-06-25T10:23:30.174Z,83.10
2018-06-25T10:25:58.858Z,83.40
2018-06-25T10:28:27.147Z,84.20
2018-06-25T10:30:55.687Z,83.50
2018-06-25T10:33:24.062Z,81.80
2018-06-25T10:35:52.530Z,83.60
2018-06-25T10:38:21.327Z,82.10
2018-06-25T10:40:49.523Z,81.10
2018-06-25T10:43:17.725Z,80.00
2018-06-25T10:45:45.947Z,77.20
2018-06-25T10:48:14.263Z,76.60
2018-06-25T10:50:42.475Z,71.70
2018-06-25T10:53:10.726Z,69.10
2018-06-25T10:55:38.978Z,69.00
2018-06-25T10:58:07.346Z,66.00
2018-06-25T11:00:35.719Z,62.20
2018-06-25T11:03:03.978Z,59.60
2018-06-25T11:05:32.194Z,57.30
2018-06-25T11:08:00.431Z,52.70
2018-06-25T11:10:28.684Z,49.00
2018-06-25T11:15:25.552Z,50.10
2018-06-25T11:17:53.786Z,50.60
2018-06-25T11:20:22.026Z,49.20
2018-06-25T11:22:50.317Z,47.00
2018-06-25T11:25:18.792Z,44.00
2018-06-25T11:27:47.825Z,44.60
2018-06-25T11:30:15.985Z,41.20
2018-06-25T11:32:44.230Z,41.90
2018-06-25T11:35:12.437Z,41.90
2018-06-25T11:37:40.729Z,42.50
2018-06-25T11:40:09.373Z,42.90
2018-06-25T11:42:37.586Z,43.90
2018-06-25T11:45:05.931Z,43.20
2018-06-25T11:47:34.225Z,43.60
2018-06-25T11:50:02.493Z,47.80
2018-06-25T11:52:30.695Z,44.40
2018-06-25T11:54:58.910Z,44.80
2018-06-25T11:57:27.445Z,46.10
2018-06-25T11:59:56.711Z,48.10
2018-06-25T12:02:25.016Z,50.50
2018-06-25T12:04:53.214Z,47.90
2018-06-25T12:07:21.399Z,47.50
2018-06-25T12:12:17.639Z,46.10
2018-06-25T12:14:45.818Z,47.60
2018-06-25T12:17:14.080Z,49.80
2018-06-25T12:19:42.464Z,52.20
2018-06-25T12:22:10.666Z,53.20
2018-06-25T12:24:38.941Z,54.40
2018-06-25T12:27:07.171Z,54.90
2018-06-25T12:29:35.405Z,57.00
2018-06-25T12:32:03.630Z,56.20
2018-06-25T12:34:31.871Z,57.70
2018-06-25T12:37:00.155Z,57.40
2018-06-25T12:39:28.378Z,57.30
2018-06-25T12:41:57.629Z,58.40
2018-06-25T12:44:25.872Z,54.60
2018-06-25T12:46:54.126Z,55.70
2018-06-25T12:49:22.361Z,54.30
2018-06-25T12:51:50.616Z,56.40
2018-06-25T12:54:18.836Z,53.70
2018-06-25T12:56:47.094Z,52.30
2018-06-25T12:59:16.064Z,52.20
2018-06-25T13:01:44.363Z,51.60
2018-06-25T13:04:12.684Z,51.50
2018-06-25T13:06:40.972Z,51.00
2018-06-25T13:09:10.272Z,49.60
2018-06-25T13:11:38.491Z,50.70
2018-06-25T13:14:06.881Z,50.20
2018-06-25T13:16:35.453Z,49.60
2018-06-25T13:19:03.765Z,51.20
2018-06-25T13:24:00.986Z,52.10
2018-06-25T13:26:29.323Z,52.30
2018-06-25T13:28:57.620Z,53.70
2018-06-25T13:31:25.954Z,56.00
2018-06-25T13:33:54.207Z,55.00
2018-06-25T13:36:22.487Z,55.60
2018-06-25T13:38:50.689Z,55.50
2018-06-25T13:41:19.027Z,56.30
2018-06-25T13:43:47.247Z,56.30
2018-06-25T13:48:43.771Z,54.70
2018-06-25T13:51:12.022Z,53.80
2018-06-25T13:53:42.375Z,52.70
2018-06-25T13:56:10.655Z,54.00
2018-06-25T13:58:38.943Z,48.20
2018-06-25T14:01:07.258Z,39.70
2018-06-25T14:03:35.453Z,37.90
2018-06-25T14:06:03.711Z,34.80
2018-06-25T14:08:32.034Z,31.30
2018-06-25T14:11:00.528Z,28.80
2018-06-25T14:13:28.830Z,27.80
2018-06-25T14:15:57.089Z,28.60
2018-06-25T14:20:53.540Z,31.30
2018-06-25T14:25:55.166Z,33.70
2018-06-25T14:28:28.819Z,35.80
2018-06-25T14:33:36.331Z,39.60
2018-06-25T14:36:04.695Z,42.20
2018-06-25T14:41:02.062Z,41.40
2018-06-25T14:45:59.118Z,42.90
2018-06-25T14:48:28.017Z,42.80
2018-06-25T14:50:56.243Z,43.60
2018-06-25T14:53:24.470Z,45.10
2018-06-25T14:55:52.696Z,45.10
2018-06-25T14:58:21.025Z,44.80
2018-06-25T15:03:17.689Z,44.10
2018-06-25T15:05:46.032Z,45.30
2018-06-25T15:08:14.666Z,43.70
2018-06-25T15:10:42.880Z,43.80
2018-06-25T15:13:11.420Z,42.00
2018-06-25T15:15:39.635Z,39.90
2018-06-25T15:18:08.283Z,38.30
2018-06-25T15:20:36.575Z,35.00
2018-06-25T15:23:05.035Z,30.70
2018-06-25T15:25:33.410Z,29.70
2018-06-25T15:28:01.647Z,26.80
2018-06-25T15:30:29.988Z,26.50
2018-06-25T15:32:59.014Z,25.90
2018-06-25T15:35:27.577Z,24.40
2018-06-25T15:37:55.900Z,25.10
2018-06-25T15:40:24.120Z,26.00
2018-06-25T15:42:52.388Z,28.10
2018-06-25T15:45:20.588Z,29.50
2018-06-25T15:47:49.396Z,29.90
2018-06-25T15:50:17.630Z,30.00
2018-06-25T15:52:45.915Z,28.60
2018-06-25T15:55:14.998Z,27.80
2018-06-25T15:57:43.410Z,27.30
2018-06-25T16:00:11.681Z,28.10
2018-06-25T16:02:39.841Z,27.70
2018-06-25T16:05:08.040Z,28.10
2018-06-25T16:07:36.298Z,28.80
2018-06-25T16:10:04.519Z,29.70
2018-06-25T16:12:32.762Z,30.70
2018-06-25T16:15:00.987Z,31.30
2018-06-25T16:17:29.211Z,30.80
2018-06-25T16:19:57.644Z,32.00
2018-06-25T16:22:25.832Z,32.10
2018-06-25T16:24:54.137Z,33.10
2018-06-25T16:27:22.419Z,33.80
2018-06-25T16:29:50.624Z,33.30
2018-06-25T16:32:18.878Z,31.30
2018-06-25T16:34:47.146Z,30.60
2018-06-25T16:37:15.567Z,30.90
2018-06-25T16:39:43.822Z,32.60
2018-06-25T16:42:12.227Z,34.60
2018-06-25T16:44:40.565Z,34.80
2018-06-25T16:47:08.923Z,35.70
2018-06-25T16:49:37.254Z,36.20
2018-06-25T16:52:05.570Z,38.20
2018-06-25T16:54:33.818Z,36.00
2018-06-25T16:57:02.063Z,37.20
2018-06-25T16:59:30.343Z,37.40
2018-06-25T17:01:58.739Z,37.60
2018-06-25T17:04:27.391Z,38.90
2018-06-25T17:06:55.746Z,39.20
2018-06-25T17:09:24.028Z,39.30
2018-06-25T17:11:52.246Z,39.50
2018-06-25T17:16:48.466Z,39.20
2018-06-25T17:19:16.738Z,39.40
2018-06-25T17:21:45.012Z,40.60
2018-06-25T17:24:13.275Z,40.30
2018-06-25T17:26:41.644Z,40.80
2018-06-25T17:29:09.859Z,40.60
2018-06-25T17:31:38.201Z,41.50
2018-06-25T17:34:06.415Z,41.80
2018-06-25T17:36:34.690Z,43.00
2018-06-25T17:39:02.987Z,42.00
2018-06-25T17:41:31.239Z,42.10
2018-06-25T17:43:59.466Z,41.70
2018-06-25T17:46:27.681Z,42.60
2018-06-25T17:48:56.153Z,43.10
2018-06-25T17:51:24.358Z,43.10
2018-06-25T17:53:52.638Z,44.60
2018-06-25T17:56:20.838Z,45.20
2018-06-25T17:58:49.214Z,45.70
2018-06-25T18:01:17.523Z,45.90
2018-06-25T18:03:45.711Z,46.70
2018-06-25T18:06:13.917Z,47.70
2018-06-25T18:08:42.143Z,47.50
2018-06-25T18:11:10.639Z,47.80
2018-06-25T18:13:38.944Z,48.40
2018-06-25T18:18:35.184Z,49.00
2018-06-25T18:21:03.420Z,48.50
2018-06-25T18:23:31.648Z,47.70
2018-06-25T18:25:59.878Z,48.30
2018-06-25T18:28:28.209Z,48.20
2018-06-25T18:30:56.358Z,48.30
2018-06-25T18:33:25.432Z,48.70
2018-06-25T18:35:53.681Z,48.50
2018-06-25T18:38:21.914Z,48.80
2018-06-25T18:40:50.190Z,50.10
2018-06-25T18:45:46.402Z,53.40
2018-06-25T18:48:14.665Z,54.20
2018-06-25T18:50:42.879Z,55.00
2018-06-25T18:53:11.146Z,56.40
2018-06-25T18:55:39.710Z,56.80
2018-06-25T18:58:08.067Z,57.90
2018-06-25T19:00:36.318Z,58.60
2018-06-25T19:03:04.647Z,59.30
2018-06-25T19:05:32.972Z,60.40
2018-06-25T19:08:01.125Z,62.00
2018-06-25T19:10:29.716Z,64.60
2018-06-25T19:12:57.949Z,67.30
2018-06-25T19:15:26.207Z,69.80
2018-06-25T19:17:54.937Z,72.00
2018-06-25T19:20:23.106Z,73.30
2018-06-25T19:22:51.346Z,73.80
2018-06-25T19:25:19.557Z,76.10
2018-06-25T19:27:47.805Z,75.50
2018-06-25T19:30:16.086Z,78.00
2018-06-25T19:32:44.367Z,80.50
2018-06-25T19:35:12.587Z,81.60
2018-06-25T19:37:40.870Z,81.40
2018-06-25T19:40:09.110Z,81.90
2018-06-25T19:42:37.358Z,82.60
2018-06-25T19:45:05.738Z,83.70
2018-06-25T19:47:33.986Z,85.60
2018-06-25T19:50:02.189Z,84.10
2018-06-25T19:52:30.418Z,84.40
2018-06-25T19:54:58.646Z,84.60
2018-06-25T19:57:26.871Z,84.70
2018-06-25T20:02:23.156Z,84.60
2018-06-25T20:04:51.364Z,83.20
2018-06-25T20:07:19.622Z,82.80
2018-06-25T20:09:47.830Z,83.50
2018-06-25T20:12:16.049Z,82.60
2018-06-25T20:14:44.365Z,82.90
2018-06-25T20:19:40.821Z,82.30
2018-06-25T20:22:09.331Z,82.20
2018-06-25T20:24:37.507Z,81.70
2018-06-25T20:27:05.886Z,81.10
2018-06-25T20:32:02.131Z,81.00
2018-06-25T20:34:30.378Z,80.80
2018-06-25T20:36:58.639Z,80.90
2018-06-25T20:39:26.930Z,81.40
2018-06-25T20:41:55.165Z,80.50
2018-06-25T20:44:23.695Z,81.00
2018-06-25T20:46:51.939Z,80.20
2018-06-25T20:49:20.205Z,80.00
2018-06-25T20:51:48.406Z,81.40
2018-06-25T20:54:16.669Z,81.80
2018-06-25T20:56:44.916Z,82.30
2018-06-25T21:01:41.086Z,81.20
2018-06-25T21:04:09.303Z,81.30
2018-06-25T21:06:37.574Z,81.70
2018-06-25T21:09:08.321Z,81.30
2018-06-25T21:14:04.645Z,80.60
2018-06-25T21:16:32.906Z,81.00
2018-06-25T21:19:01.202Z,81.50
2018-06-25T21:21:29.772Z,79.80
2018-06-25T21:23:57.994Z,81.60
2018-06-25T21:26:26.298Z,82.00
2018-06-25T21:28:54.814Z,82.30
2018-06-25T21:31:23.063Z,90.10
2018-06-25T21:33:51.282Z,91.80
2018-06-25T21:36:19.500Z,93.50
2018-06-25T21:38:47.745Z,94.40
2018-06-25T21:41:15.986Z,95.30
2018-06-25T21:43:44.233Z,96.00
2018-06-25T21:46:12.486Z,96.20
2018-06-25T21:48:40.735Z,96.30
2018-06-25T21:51:08.986Z,96.20
2018-06-25T21:53:37.246Z,96.20
2018-06-25T21:56:05.490Z,96.30
2018-06-25T21:58:33.783Z,96.40
2018-06-25T22:01:01.992Z,96.40
2018-06-25T22:03:30.267Z,96.20
2018-06-25T22:05:58.519Z,96.20
2018-06-25T22:08:26.735Z,96.00
2018-06-25T22:10:55.032Z,95.50
2018-06-25T22:15:51.343Z,94.30
2018-06-25T22:18:19.590Z,94.20
2018-06-25T22:20:47.807Z,93.80
2018-06-25T22:23:16.096Z,93.50
2018-06-25T22:25:44.318Z,93.40
2018-06-25T22:28:12.598Z,93.10
2018-06-25T22:30:40.830Z,93.60
2018-06-25T22:35:37.042Z,93.10
2018-06-25T22:38:05.671Z,93.10
2018-06-25T22:40:33.878Z,93.60
2018-06-25T22:43:02.103Z,93.60
2018-06-25T22:47:58.293Z,94.10
2018-06-25T22:50:26.526Z,94.20
2018-06-25T22:52:54.772Z,94.70
2018-06-25T22:55:23.539Z,95.00
2018-06-25T22:57:51.936Z,95.40
2018-06-25T23:00:20.185Z,95.40
2018-06-25T23:02:48.462Z,95.40
2018-06-25T23:05:16.739Z,95.50
2018-06-25T23:07:44.959Z,95.60
2018-06-25T23:12:41.186Z,95.90
2018-06-25T23:15:09.463Z,95.70
2018-06-25T23:17:37.683Z,95.90
2018-06-25T23:20:06.035Z,95.70
2018-06-25T23:22:34.284Z,96.00
2018-06-25T23:25:02.539Z,96.00
2018-06-25T23:27:30.770Z,96.10
2018-06-25T23:32:26.997Z,96.80
2018-06-25T23:34:55.239Z,97.10
2018-06-25T23:37:23.483Z,97.70
2018-06-25T23:39:51.715Z,98.00
2018-06-25T23:42:20.131Z,98.20
2018-06-25T23:44:48.370Z,98.50
2018-06-25T23:47:16.647Z,98.80
2018-06-25T23:49:44.916Z,99.10
2018-06-25T23:52:13.123Z,99.30
2018-06-25T23:54:41.440Z,99.30
2018-06-25T23:57:09.705Z,99.70
2018-06-25T23:59:37.940Z,99.90
